createdAt,value
2024-03-03T00:01:20.175Z,8.80
2024-03-03T00:04:12.776Z,8.80
2024-03-03T00:07:05.560Z,8.80
2024-03-03T00:09:33.368Z,8.90
2024-03-03T00:14:53.149Z,8.80
2024-03-03T00:17:20.699Z,8.80
2024-03-03T00:20:16.638Z,8.80
2024-03-03T00:22:43.958Z,8.70
2024-03-03T00:25:11.415Z,8.70
2024-03-03T00:27:40.490Z,8.80
2024-03-03T00:30:08.221Z,8.80
2024-03-03T00:33:00.882Z,8.80
2024-03-03T00:35:28.340Z,8.80
2024-03-03T00:37:55.737Z,8.70
2024-03-03T00:40:41.034Z,8.70
2024-03-03T00:43:09.886Z,8.70
2024-03-03T00:46:02.974Z,8.70
2024-03-03T00:48:30.339Z,8.70
2024-03-03T00:50:57.332Z,8.70
2024-03-03T00:53:25.065Z,8.70
2024-03-03T00:55:52.946Z,8.70
2024-03-03T00:58:21.589Z,8.70
2024-03-03T01:00:48.801Z,8.70
2024-03-03T01:04:07.593Z,8.70
2024-03-03T01:06:34.722Z,8.70
2024-03-03T01:09:02.168Z,8.70
2024-03-03T01:11:32.397Z,8.70
2024-03-03T01:14:40.456Z,8.70
2024-03-03T01:17:07.547Z,8.70
2024-03-03T01:20:04.085Z,8.70
2024-03-03T01:22:31.985Z,8.70
2024-03-03T01:25:06.762Z,8.70
2024-03-03T01:27:35.729Z,8.70
2024-03-03T01:30:18.219Z,8.70
2024-03-03T01:32:57.222Z,8.70
2024-03-03T01:35:24.777Z,8.70
2024-03-03T01:37:52.053Z,8.70
2024-03-03T01:40:19.754Z,8.60
2024-03-03T01:42:47.525Z,8.60
2024-03-03T01:45:34.526Z,8.60
2024-03-03T01:48:03.490Z,8.60
2024-03-03T01:50:31.117Z,8.60
2024-03-03T01:53:00.199Z,8.60
2024-03-03T01:55:27.805Z,8.60
2024-03-03T01:58:03.926Z,8.60
2024-03-03T02:00:55.414Z,8.60
2024-03-03T02:03:22.726Z,8.60
2024-03-03T02:06:18.357Z,8.60
2024-03-03T02:08:47.016Z,8.60
2024-03-03T02:11:15.628Z,8.60
2024-03-03T02:13:46.082Z,8.60
2024-03-03T02:16:13.648Z,8.60
2024-03-03T02:18:40.712Z,8.60
2024-03-03T02:21:08.258Z,8.60
2024-03-03T02:23:35.203Z,8.50
2024-03-03T02:26:12.534Z,8.60
2024-03-03T02:28:42.530Z,8.50
2024-03-03T02:31:12.582Z,8.50
2024-03-03T02:33:57.360Z,8.50
2024-03-03T02:36:34.955Z,8.50
2024-03-03T02:39:04.610Z,8.50
2024-03-03T02:41:32.028Z,8.50
2024-03-03T02:43:59.033Z,8.40
2024-03-03T02:46:26.844Z,8.40
2024-03-03T02:48:57.848Z,8.40
2024-03-03T02:51:28.021Z,8.40
2024-03-03T02:53:55.243Z,8.40
2024-03-03T02:56:23.317Z,8.40
2024-03-03T02:58:50.802Z,8.40
2024-03-03T03:01:18.130Z,8.30
2024-03-03T03:03:45.257Z,8.40
2024-03-03T03:06:12.549Z,8.40
2024-03-03T03:08:45.952Z,8.30
2024-03-03T03:11:16.809Z,8.30
2024-03-03T03:13:45.275Z,8.20
2024-03-03T03:16:21.263Z,8.20
2024-03-03T03:19:16.469Z,8.20
2024-03-03T03:21:46.179Z,8.10
2024-03-03T03:24:13.284Z,8.10
2024-03-03T03:26:48.022Z,8.10
2024-03-03T03:29:15.395Z,8.00
2024-03-03T03:31:42.739Z,8.00
2024-03-03T03:34:10.177Z,8.00
2024-03-03T03:37:12.803Z,8.00
2024-03-03T03:39:41.028Z,8.00
2024-03-03T03:42:33.586Z,8.00
2024-03-03T03:45:26.179Z,8.00
2024-03-03T03:47:55.633Z,7.90
2024-03-03T03:50:22.769Z,7.90
2024-03-03T03:52:50.795Z,7.90
2024-03-03T03:55:17.877Z,7.70
2024-03-03T03:57:45.218Z,7.80
2024-03-03T04:00:28.056Z,7.80
2024-03-03T04:03:20.835Z,7.80
2024-03-03T04:05:48.194Z,7.80
2024-03-03T04:08:15.381Z,7.80
2024-03-03T04:10:48.807Z,7.80
2024-03-03T04:13:16.128Z,7.80
2024-03-03T04:15:43.343Z,7.80
2024-03-03T04:18:11.973Z,7.80
2024-03-03T04:20:39.017Z,7.80
2024-03-03T04:23:06.319Z,7.80
2024-03-03T04:25:33.314Z,7.80
2024-03-03T04:28:00.697Z,7.80
2024-03-03T04:30:29.432Z,7.80
2024-03-03T04:32:56.854Z,7.80
2024-03-03T04:35:23.817Z,7.70
2024-03-03T04:37:51.088Z,7.70
2024-03-03T04:40:47.493Z,7.60
2024-03-03T04:43:15.021Z,7.60
2024-03-03T04:45:43.052Z,7.60
2024-03-03T04:48:10.856Z,7.60
2024-03-03T04:50:41.301Z,7.60
2024-03-03T04:53:08.536Z,7.60
2024-03-03T04:56:03.150Z,7.60
2024-03-03T04:58:45.215Z,7.60
2024-03-03T05:01:12.377Z,7.40
2024-03-03T05:05:20.131Z,7.40
2024-03-03T05:08:12.294Z,7.40
2024-03-03T05:13:55.606Z,7.40
2024-03-03T05:16:48.632Z,6.80
2024-03-03T05:19:41.283Z,6.70
2024-03-03T05:22:08.784Z,6.70
2024-03-03T05:25:01.716Z,7.00
2024-03-03T05:27:28.991Z,7.10
2024-03-03T05:30:49.598Z,7.30
2024-03-03T05:33:16.881Z,7.30
2024-03-03T05:35:53.114Z,7.30
2024-03-03T05:38:20.380Z,7.30
2024-03-03T05:40:47.645Z,7.30
2024-03-03T05:43:14.699Z,7.30
2024-03-03T05:46:07.967Z,7.30
2024-03-03T05:48:40.567Z,7.30
2024-03-03T05:51:13.001Z,7.30
2024-03-03T05:54:03.923Z,7.30
2024-03-03T05:56:31.336Z,7.30
2024-03-03T05:59:28.789Z,7.30
2024-03-03T06:01:56.253Z,7.30
2024-03-03T06:04:23.276Z,7.30
2024-03-03T06:07:17.631Z,7.30
2024-03-03T06:09:45.117Z,7.30
2024-03-03T06:12:12.652Z,7.20
2024-03-03T06:17:24.324Z,7.20
2024-03-03T06:19:54.269Z,7.20
2024-03-03T06:22:21.696Z,7.30
2024-03-03T06:24:49.300Z,7.20
2024-03-03T06:30:04.673Z,7.00
2024-03-03T06:32:33.167Z,7.00
2024-03-03T06:35:00.945Z,7.20
2024-03-03T06:37:28.871Z,7.30
2024-03-03T06:43:12.063Z,7.30
2024-03-03T06:45:39.562Z,7.40
2024-03-03T06:48:58.187Z,7.40
2024-03-03T06:51:28.676Z,7.40
2024-03-03T06:53:56.292Z,7.50
2024-03-03T06:56:30.574Z,7.50
2024-03-03T06:59:28.278Z,7.50
2024-03-03T07:05:02.655Z,7.70
2024-03-03T07:10:25.989Z,8.00
2024-03-03T07:13:04.422Z,8.20
2024-03-03T07:15:34.506Z,8.30
2024-03-03T07:18:06.260Z,8.50
2024-03-03T07:20:33.720Z,8.70
2024-03-03T07:23:20.957Z,8.90
2024-03-03T07:25:49.991Z,9.00
2024-03-03T07:28:17.047Z,9.20
2024-03-03T07:30:44.409Z,9.30
2024-03-03T07:33:11.514Z,9.40
2024-03-03T07:35:38.918Z,9.60
2024-03-03T07:38:06.328Z,9.70
2024-03-03T07:40:38.187Z,9.90
2024-03-03T07:43:06.484Z,10.00
2024-03-03T07:45:34.032Z,10.10
2024-03-03T07:48:01.119Z,10.30
2024-03-03T07:50:28.597Z,10.40
2024-03-03T07:52:55.987Z,10.50
2024-03-03T07:55:23.363Z,10.70
2024-03-03T07:57:50.681Z,10.80
2024-03-03T08:00:18.429Z,10.90
2024-03-03T08:02:45.419Z,11.00
2024-03-03T08:05:12.993Z,11.20
2024-03-03T08:07:47.876Z,11.30
2024-03-03T08:10:15.473Z,11.40
2024-03-03T08:12:42.477Z,11.50
2024-03-03T08:15:10.520Z,11.60
2024-03-03T08:17:37.567Z,11.70
2024-03-03T08:20:05.818Z,12.00
2024-03-03T08:23:02.091Z,12.10
2024-03-03T08:25:55.417Z,12.20
2024-03-03T08:28:22.563Z,12.50
2024-03-03T08:31:06.461Z,12.80
2024-03-03T08:33:33.570Z,13.00
2024-03-03T08:36:00.993Z,13.20
2024-03-03T08:38:29.870Z,13.40
2024-03-03T08:40:57.253Z,13.50
2024-03-03T08:43:24.368Z,13.70
2024-03-03T08:49:01.151Z,14.30
2024-03-03T08:51:41.075Z,14.40
2024-03-03T08:54:23.310Z,14.40
2024-03-03T08:56:53.912Z,14.50
2024-03-03T08:59:20.986Z,14.60
2024-03-03T09:01:48.557Z,14.60
2024-03-03T09:04:15.800Z,14.60
2024-03-03T09:07:09.298Z,14.60
2024-03-03T09:09:47.409Z,14.80
2024-03-03T09:12:17.559Z,14.90
2024-03-03T09:15:10.050Z,14.80
2024-03-03T09:18:02.819Z,14.70
2024-03-03T09:20:29.823Z,14.70
2024-03-03T09:22:58.420Z,14.70
2024-03-03T09:25:59.301Z,14.70
2024-03-03T09:28:27.402Z,14.80
2024-03-03T09:30:55.777Z,14.90
2024-03-03T09:33:26.917Z,15.00
2024-03-03T09:35:54.034Z,15.10
2024-03-03T09:38:24.958Z,15.10
2024-03-03T09:40:52.546Z,15.30
2024-03-03T09:43:28.798Z,15.50
2024-03-03T09:45:56.381Z,15.80
2024-03-03T09:48:40.331Z,16.10
2024-03-03T09:51:35.075Z,16.40
2024-03-03T09:54:32.226Z,16.40
2024-03-03T09:57:22.130Z,16.60
2024-03-03T09:59:52.666Z,16.80
2024-03-03T10:02:46.196Z,16.80
2024-03-03T10:05:16.922Z,16.80
2024-03-03T10:07:52.404Z,16.90
2024-03-03T10:10:49.376Z,16.90
2024-03-03T10:13:19.854Z,16.90
2024-03-03T10:16:15.503Z,17.00
2024-03-03T10:21:59.736Z,17.00
2024-03-03T10:24:37.370Z,17.20
2024-03-03T10:27:19.242Z,17.20
2024-03-03T10:29:52.543Z,17.40
2024-03-03T10:32:47.904Z,17.50
2024-03-03T10:35:44.669Z,17.70
2024-03-03T10:38:12.172Z,17.90
2024-03-03T10:40:46.352Z,17.90
2024-03-03T10:43:13.473Z,17.90
2024-03-03T10:46:07.179Z,18.00
2024-03-03T10:48:35.163Z,18.00
2024-03-03T10:51:27.703Z,18.10
2024-03-03T10:54:04.909Z,18.10
2024-03-03T10:56:41.833Z,18.20
2024-03-03T10:59:15.624Z,18.20
2024-03-03T11:01:45.667Z,18.30
2024-03-03T11:04:14.923Z,18.40
2024-03-03T11:06:43.960Z,18.40
2024-03-03T11:09:12.724Z,18.40
2024-03-03T11:12:38.412Z,18.50
2024-03-03T11:15:48.637Z,18.60
2024-03-03T11:18:25.761Z,18.80
2024-03-03T11:20:59.368Z,18.80
2024-03-03T11:24:42.779Z,18.90
2024-03-03T11:27:23.798Z,18.90
2024-03-03T11:30:45.540Z,19.00
2024-03-03T11:33:14.195Z,19.10
2024-03-03T11:35:51.117Z,19.10
2024-03-03T11:38:18.480Z,19.10
2024-03-03T11:41:39.884Z,19.10
2024-03-03T11:44:53.337Z,19.10
2024-03-03T11:47:38.914Z,19.00
2024-03-03T11:50:37.000Z,19.00
2024-03-03T11:53:11.192Z,19.00
2024-03-03T11:56:17.956Z,19.10
2024-03-03T11:58:49.384Z,19.20
2024-03-03T12:01:30.273Z,19.30
2024-03-03T12:04:00.685Z,19.30
2024-03-03T12:06:53.574Z,19.40
2024-03-03T12:09:23.194Z,19.40
2024-03-03T12:12:15.834Z,19.40
2024-03-03T12:14:43.170Z,19.30
2024-03-03T12:17:20.847Z,19.40
2024-03-03T12:19:48.519Z,19.50
2024-03-03T12:22:15.986Z,19.60
2024-03-03T12:24:57.195Z,19.70
2024-03-03T12:27:26.270Z,19.90
2024-03-03T12:30:10.365Z,20.00
2024-03-03T12:32:38.375Z,19.80
2024-03-03T12:35:06.000Z,19.90
2024-03-03T12:37:42.489Z,20.10
2024-03-03T12:40:35.068Z,20.00
2024-03-03T12:43:07.808Z,20.10
2024-03-03T12:45:34.869Z,19.80
2024-03-03T12:48:13.108Z,19.50
2024-03-03T12:51:06.450Z,19.30
2024-03-03T12:53:40.810Z,19.10
2024-03-03T12:56:32.025Z,19.00
2024-03-03T12:59:03.180Z,18.60
2024-03-03T13:01:56.257Z,18.40
2024-03-03T13:04:31.114Z,18.10
2024-03-03T13:07:00.680Z,18.00
2024-03-03T13:09:41.005Z,18.10
2024-03-03T13:12:08.248Z,18.00
2024-03-03T13:14:35.794Z,17.70
2024-03-03T13:19:57.881Z,17.40
2024-03-03T13:22:25.074Z,17.40
2024-03-03T13:25:21.677Z,17.40
2024-03-03T13:28:43.026Z,17.50
2024-03-03T13:31:10.493Z,17.20
2024-03-03T13:33:44.444Z,17.60
2024-03-03T13:36:14.002Z,17.50
2024-03-03T13:38:46.228Z,17.30
2024-03-03T13:41:16.276Z,17.50
2024-03-03T13:43:43.646Z,17.50
2024-03-03T13:46:21.079Z,17.50
2024-03-03T13:48:48.134Z,17.20
2024-03-03T13:51:41.027Z,17.10
2024-03-03T13:54:40.584Z,17.00
2024-03-03T13:57:43.800Z,16.90
2024-03-03T14:00:15.950Z,17.10
2024-03-03T14:02:45.380Z,17.20
2024-03-03T14:05:13.626Z,17.00
2024-03-03T14:07:44.338Z,17.00
2024-03-03T14:10:29.956Z,16.60
2024-03-03T14:13:05.582Z,16.50
2024-03-03T14:15:38.931Z,16.70
2024-03-03T14:18:24.010Z,16.50
2024-03-03T14:20:52.008Z,16.40
2024-03-03T14:23:28.634Z,16.40
2024-03-03T14:25:57.605Z,16.30
2024-03-03T14:28:25.907Z,16.20
2024-03-03T14:30:56.177Z,16.30
2024-03-03T14:33:28.580Z,16.10
2024-03-03T14:35:57.010Z,16.10
2024-03-03T14:38:25.049Z,16.10
2024-03-03T14:40:52.547Z,16.10
2024-03-03T14:43:21.398Z,16.00
2024-03-03T14:45:52.367Z,16.00
2024-03-03T14:48:19.526Z,16.00
2024-03-03T14:50:52.324Z,16.00
2024-03-03T14:53:19.646Z,16.00
2024-03-03T14:58:39.368Z,15.90
2024-03-03T15:01:21.315Z,15.90
2024-03-03T15:03:55.322Z,16.10
2024-03-03T15:06:22.490Z,15.80
2024-03-03T15:08:51.394Z,15.80
2024-03-03T15:11:18.801Z,15.70
2024-03-03T15:14:11.995Z,15.60
2024-03-03T15:16:39.729Z,15.60
2024-03-03T15:19:30.414Z,15.50
2024-03-03T15:21:58.176Z,15.50
2024-03-03T15:24:25.561Z,15.50
2024-03-03T15:26:58.612Z,15.40
2024-03-03T15:29:58.983Z,15.50
2024-03-03T15:32:26.713Z,15.40
2024-03-03T15:34:56.066Z,15.40
2024-03-03T15:37:25.445Z,15.40
2024-03-03T15:39:52.880Z,15.30
2024-03-03T15:42:23.885Z,15.20
2024-03-03T15:44:51.226Z,15.20
2024-03-03T15:47:18.845Z,15.20
2024-03-03T15:53:18.737Z,15.30
2024-03-03T15:55:47.933Z,15.30
2024-03-03T15:58:15.500Z,15.10
2024-03-03T16:00:44.177Z,15.10
2024-03-03T16:03:14.386Z,15.20
2024-03-03T16:05:45.764Z,15.30
2024-03-03T16:08:13.693Z,15.30
2024-03-03T16:10:47.717Z,15.10
2024-03-03T16:13:26.152Z,15.00
2024-03-03T16:15:54.048Z,14.90
2024-03-03T16:18:21.662Z,14.90
2024-03-03T16:20:48.828Z,14.80
2024-03-03T16:23:16.059Z,14.80
2024-03-03T16:25:45.942Z,14.90
2024-03-03T16:28:14.026Z,14.80
2024-03-03T16:31:06.765Z,14.70
2024-03-03T16:33:38.094Z,14.60
2024-03-03T16:37:02.240Z,14.50
2024-03-03T16:39:45.810Z,14.50
2024-03-03T16:42:13.051Z,14.30
2024-03-03T16:44:40.946Z,14.40
2024-03-03T16:47:15.593Z,14.20
2024-03-03T16:49:45.298Z,14.20
2024-03-03T16:52:12.409Z,14.20
2024-03-03T16:54:48.918Z,14.20
2024-03-03T16:57:49.655Z,14.20
2024-03-03T17:01:33.668Z,14.10
2024-03-03T17:04:01.673Z,14.00
2024-03-03T17:10:27.032Z,14.40
2024-03-03T17:12:58.253Z,14.20
2024-03-03T17:15:52.476Z,14.40
2024-03-03T17:18:21.270Z,14.50
2024-03-03T17:20:48.696Z,14.50
2024-03-03T17:23:17.432Z,14.60
2024-03-03T17:25:46.254Z,14.70
2024-03-03T17:29:03.428Z,14.70
2024-03-03T17:35:29.208Z,14.70
2024-03-03T17:37:56.930Z,14.70
2024-03-03T17:41:02.169Z,14.70
2024-03-03T17:43:31.913Z,14.70
2024-03-03T17:47:14.336Z,14.60
2024-03-03T17:49:43.228Z,14.60
2024-03-03T17:52:21.665Z,14.60
2024-03-03T17:57:33.391Z,14.60
2024-03-03T18:00:35.879Z,14.50
2024-03-03T18:03:03.389Z,14.50
2024-03-03T18:05:37.532Z,14.20
2024-03-03T18:08:05.879Z,13.90
2024-03-03T18:10:58.943Z,14.00
2024-03-03T18:13:51.960Z,13.60
2024-03-03T18:16:19.882Z,13.30
2024-03-03T18:18:46.894Z,13.00
2024-03-03T18:21:14.961Z,13.10
2024-03-03T18:23:42.326Z,13.40
2024-03-03T18:26:13.067Z,13.70
2024-03-03T18:28:57.070Z,13.90
2024-03-03T18:32:41.096Z,13.80
2024-03-03T18:35:25.646Z,13.80
2024-03-03T18:38:25.206Z,13.30
2024-03-03T18:40:53.144Z,13.00
2024-03-03T18:43:45.621Z,13.00
2024-03-03T18:46:13.069Z,13.10
2024-03-03T18:48:52.887Z,12.90
2024-03-03T18:51:20.425Z,12.70
2024-03-03T18:53:48.741Z,12.60
2024-03-03T19:06:07.841Z,12.40
2024-03-03T19:11:59.226Z,13.20
2024-03-03T19:14:55.876Z,13.30
2024-03-03T19:17:51.706Z,13.30
2024-03-03T19:23:32.544Z,13.10
2024-03-03T19:26:55.308Z,12.80
2024-03-03T19:29:24.020Z,13.00
2024-03-03T19:31:51.428Z,13.20
2024-03-03T19:34:19.032Z,13.20
2024-03-03T19:36:54.895Z,13.30
2024-03-03T19:39:49.543Z,13.30
2024-03-03T19:46:07.906Z,13.30
2024-03-03T19:48:35.683Z,13.30
2024-03-03T19:51:03.289Z,13.00
2024-03-03T20:03:40.746Z,12.40
2024-03-03T20:06:10.471Z,12.30
2024-03-03T20:08:37.892Z,12.20
2024-03-03T20:11:08.132Z,12.20
2024-03-03T20:13:48.464Z,12.40
2024-03-03T20:16:16.012Z,12.40
2024-03-03T20:18:43.615Z,12.20
2024-03-03T20:21:11.224Z,12.10
2024-03-03T20:23:38.882Z,12.00
2024-03-03T20:26:06.307Z,11.90
2024-03-03T20:28:33.573Z,11.90
2024-03-03T20:31:01.158Z,12.10
2024-03-03T20:33:31.312Z,12.10
2024-03-03T20:36:23.777Z,11.90
2024-03-03T20:39:00.240Z,12.10
2024-03-03T20:41:28.017Z,12.00
2024-03-03T20:43:56.513Z,11.70
2024-03-03T20:49:45.950Z,11.60
2024-03-03T20:52:22.896Z,11.80
2024-03-03T21:34:27.177Z,11.20
2024-03-03T21:36:55.454Z,11.20
2024-03-03T21:39:23.489Z,11.00
2024-03-03T21:41:51.036Z,10.80
2024-03-03T21:44:18.138Z,11.00
2024-03-03T21:46:45.482Z,11.10
2024-03-03T21:49:12.737Z,11.40
2024-03-03T21:51:40.538Z,11.50
2024-03-03T21:54:08.411Z,11.60
2024-03-03T21:56:36.249Z,11.70
2024-03-03T21:59:03.418Z,11.70
2024-03-03T22:01:31.371Z,11.70
2024-03-03T22:03:58.465Z,11.90
2024-03-03T22:06:26.316Z,11.80
2024-03-03T22:08:56.709Z,11.80
2024-03-03T22:11:25.850Z,11.40
2024-03-03T22:13:52.894Z,11.10
2024-03-03T22:16:20.580Z,11.10
2024-03-03T22:19:15.145Z,11.00
2024-03-03T22:21:42.983Z,10.80
2024-03-03T22:24:10.353Z,10.90
2024-03-03T22:26:40.886Z,11.30
2024-03-03T22:29:10.666Z,11.50
2024-03-03T22:31:38.464Z,11.20
2024-03-03T22:34:05.901Z,11.40
2024-03-03T22:36:33.136Z,11.20
2024-03-03T22:39:00.283Z,11.30
2024-03-03T22:41:27.618Z,11.40
2024-03-03T22:47:19.179Z,11.30
2024-03-03T22:49:46.784Z,11.40
2024-03-03T22:52:13.993Z,11.60
2024-03-03T22:54:41.428Z,11.70
2024-03-03T22:57:09.043Z,11.70
2024-03-03T22:59:37.213Z,11.70
2024-03-03T23:02:05.289Z,11.40
2024-03-03T23:04:33.824Z,11.20
2024-03-03T23:07:01.095Z,11.00
2024-03-03T23:09:29.647Z,11.00
2024-03-03T23:11:57.674Z,10.80
2024-03-03T23:14:25.030Z,10.60
2024-03-03T23:16:52.761Z,10.70
2024-03-03T23:19:20.557Z,10.80
2024-03-03T23:21:47.648Z,11.00
2024-03-03T23:24:15.640Z,11.10
2024-03-03T23:26:44.740Z,11.20
2024-03-03T23:29:12.910Z,11.30
2024-03-03T23:31:40.387Z,11.30
2024-03-03T23:34:07.812Z,11.20
2024-03-03T23:36:34.811Z,11.30
2024-03-03T23:39:02.450Z,11.30
2024-03-03T23:41:29.795Z,11.20
2024-03-03T23:43:58.274Z,11.20
2024-03-03T23:46:25.817Z,11.20
2024-03-03T23:48:53.543Z,11.20
2024-03-03T23:51:20.716Z,11.10
2024-03-03T23:53:48.251Z,11.10
2024-03-03T23:56:15.298Z,11.10
2024-03-03T23:58:43.301Z,11.10
